Time,TemperatureF,DewpointF,PressureIn,WindDirection,WindDirectionDegrees,WindSpeedMPH,WindSpeedGustMPH,Humidity,HourlyPrecipIn,Conditions,Clouds,dailyrainin,SoftwareType,DateUTC
2013-03-28 00:03:00,35.6,30.9,30.02,West,271,0.0,2.0,83,0.00,,,0.00,Wunderground v.1.15,2013-03-28 04:03:00,
2013-03-28 00:08:00,35.6,31.8,30.02,West,271,0.0,0.0,86,0.00,,,0.00,Wunderground v.1.15,2013-03-28 04:08:00,
2013-03-28 00:13:00,35.5,30.8,30.02,West,271,0.0,0.0,83,0.00,,,0.00,Wunderground v.1.15,2013-03-28 04:13:00,
2013-03-28 00:23:00,35.1,30.8,30.02,West,271,0.0,2.0,84,0.00,,,0.00,Wunderground v.1.15,2013-03-28 04:23:00,
2013-03-28 00:28:00,34.9,30.6,30.03,West,271,0.0,0.0,84,0.00,,,0.00,Wunderground v.1.15,2013-03-28 04:28:00,
2013-03-28 00:38:00,34.6,30.8,30.02,West,271,0.0,0.0,86,0.00,,,0.00,Wunderground v.1.15,2013-03-28 04:38:00,
2013-03-28 00:43:00,34.4,30.4,30.02,West,271,0.0,0.0,85,0.00,,,0.00,Wunderground v.1.15,2013-03-28 04:43:00,
2013-03-28 00:53:00,34.2,30.4,30.02,West,271,0.0,0.0,86,0.00,,,0.00,Wunderground v.1.15,2013-03-28 04:53:00,
2013-03-28 00:58:00,34.0,30.3,30.02,West,271,0.0,0.0,86,0.00,,,0.00,Wunderground v.1.15,2013-03-28 04:58:00,
2013-03-28 01:07:00,33.7,30.0,30.02,West,271,0.0,0.0,86,0.00,,,0.00,Wunderground v.1.15,2013-03-28 05:07:00,
2013-03-28 01:13:00,33.4,29.9,30.02,West,271,0.0,0.0,87,0.00,,,0.00,Wunderground v.1.15,2013-03-28 05:13:00,
2013-03-28 01:22:00,33.1,29.9,30.02,West,271,0.0,0.0,88,0.00,,,0.00,Wunderground v.1.15,2013-03-28 05:22:00,
2013-03-28 01:28:00,32.9,29.7,30.02,West,271,0.0,0.0,88,0.00,,,0.00,Wunderground v.1.15,2013-03-28 05:28:00,
2013-03-28 01:38:00,32.5,29.3,30.02,West,271,0.0,0.0,88,0.00,,,0.00,Wunderground v.1.15,2013-03-28 05:38:00,
2013-03-28 01:43:00,32.3,29.1,30.02,West,271,0.0,0.0,88,0.00,,,0.00,Wunderground v.1.15,2013-03-28 05:43:00,
2013-03-28 01:53:00,32.1,29.2,30.02,West,271,0.0,0.0,89,0.00,,,0.00,Wunderground v.1.15,2013-03-28 05:53:00,
2013-03-28 01:58:00,32.0,29.1,30.01,West,271,0.0,1.0,89,0.00,,,0.00,Wunderground v.1.15,2013-03-28 05:58:00,
2013-03-28 02:08:00,31.7,28.8,30.02,West,271,0.0,0.0,89,0.00,,,0.00,Wunderground v.1.15,2013-03-28 06:08:00,
2013-03-28 02:18:00,31.9,29.3,30.01,West,271,0.0,0.0,90,0.00,,,0.00,Wunderground v.1.15,2013-03-28 06:18:00,
2013-03-28 02:29:00,32.2,29.3,30.01,West,271,0.0,0.0,89,0.00,,,0.00,Wunderground v.1.15,2013-03-28 06:29:00,
2013-03-28 02:38:00,32.5,29.9,30.01,West,271,0.0,0.0,90,0.00,,,0.00,Wunderground v.1.15,2013-03-28 06:38:00,
2013-03-28 02:44:00,32.8,29.9,30.01,West,271,0.0,0.0,89,0.00,,,0.00,Wunderground v.1.15,2013-03-28 06:44:00,
2013-03-28 02:53:00,32.9,30.3,30.01,West,271,0.0,0.0,90,0.00,,,0.00,Wunderground v.1.15,2013-03-28 06:53:00,
2013-03-28 02:59:00,32.7,29.5,30.01,West,271,0.0,0.0,88,0.00,,,0.00,Wunderground v.1.15,2013-03-28 06:59:00,
2013-03-28 03:08:00,32.6,29.7,30.01,West,271,0.0,0.0,89,0.00,,,0.00,Wunderground v.1.15,2013-03-28 07:08:00,
2013-03-28 03:14:00,32.5,29.6,30.01,West,271,0.0,0.0,89,0.00,,,0.00,Wunderground v.1.15,2013-03-28 07:14:00,
2013-03-28 03:23:00,32.6,29.7,30.01,West,271,0.0,0.0,89,0.00,,,0.00,Wunderground v.1.15,2013-03-28 07:23:00,
2013-03-28 03:33:00,32.7,29.8,30.00,West,271,0.0,0.0,89,0.00,,,0.00,Wunderground v.1.15,2013-03-28 07:33:00,
2013-03-28 03:43:00,32.4,29.2,30.00,West,271,0.0,0.0,88,0.00,,,0.00,Wunderground v.1.15,2013-03-28 07:43:00,
2013-03-28 03:53:00,31.9,28.8,30.00,West,271,0.0,0.0,88,0.00,,,0.00,Wunderground v.1.15,2013-03-28 07:53:00,
2013-03-28 03:58:00,31.7,28.6,30.00,West,271,0.0,0.0,88,0.00,,,0.00,Wunderground v.1.15,2013-03-28 07:58:00,
2013-03-28 04:08:00,31.2,28.3,30.00,West,271,0.0,0.0,89,0.00,,,0.00,Wunderground v.1.15,2013-03-28 08:08:00,
2013-03-28 04:13:00,30.9,28.0,30.00,West,271,0.0,0.0,89,0.00,,,0.00,Wunderground v.1.15,2013-03-28 08:13:00,
2013-03-28 04:23:00,30.8,28.2,30.00,West,271,0.0,0.0,90,0.00,,,0.00,Wunderground v.1.15,2013-03-28 08:23:00,
2013-03-28 04:28:00,30.7,28.1,30.00,West,271,0.0,0.0,90,0.00,,,0.00,Wunderground v.1.15,2013-03-28 08:28:00,
2013-03-28 04:37:00,30.3,27.7,30.00,West,271,0.0,0.0,90,0.00,,,0.00,Wunderground v.1.15,2013-03-28 08:37:00,
2013-03-28 04:43:00,30.2,27.6,30.00,West,271,0.0,0.0,90,0.00,,,0.00,Wunderground v.1.15,2013-03-28 08:43:00,
2013-03-28 04:52:00,30.0,27.4,30.01,West,271,0.0,0.0,90,0.00,,,0.00,Wunderground v.1.15,2013-03-28 08:52:00,
2013-03-28 04:58:00,29.9,27.3,30.01,West,271,0.0,0.0,90,0.00,,,0.00,Wunderground v.1.15,2013-03-28 08:58:00,
2013-03-28 05:08:00,30.1,28.1,30.01,West,271,0.0,0.0,92,0.00,,,0.00,Wunderground v.1.15,2013-03-28 09:08:00,
2013-03-28 05:14:00,30.1,28.1,30.01,West,271,0.0,0.0,92,0.00,,,0.00,Wunderground v.1.15,2013-03-28 09:14:00,
2013-03-28 05:23:00,29.6,27.0,30.01,West,271,0.0,0.0,90,0.00,,,0.00,Wunderground v.1.15,2013-03-28 09:23:00,
2013-03-28 05:29:00,29.2,26.6,30.01,West,271,0.0,0.0,90,0.00,,,0.00,Wunderground v.1.15,2013-03-28 09:29:00,
2013-03-28 05:39:00,29.2,27.2,30.01,West,271,0.0,0.0,92,0.00,,,0.00,Wunderground v.1.15,2013-03-28 09:39:00,
2013-03-28 05:44:00,29.4,27.4,30.01,West,271,0.0,0.0,92,0.00,,,0.00,Wunderground v.1.15,2013-03-28 09:44:00,
2013-03-28 05:53:00,29.6,27.6,30.01,West,271,0.0,0.0,92,0.00,,,0.00,Wunderground v.1.15,2013-03-28 09:53:00,
2013-03-28 05:59:00,29.6,27.6,30.01,West,271,0.0,0.0,92,0.00,,,0.00,Wunderground v.1.15,2013-03-28 09:59:00,
2013-03-28 06:08:00,29.6,27.6,30.02,West,271,0.0,0.0,92,0.00,,,0.00,Wunderground v.1.15,2013-03-28 10:08:00,
2013-03-28 06:14:00,29.6,27.6,30.02,West,271,0.0,0.0,92,0.00,,,0.00,Wunderground v.1.15,2013-03-28 10:14:00,
2013-03-28 06:23:00,29.7,27.7,30.02,West,271,0.0,0.0,92,0.00,,,0.00,Wunderground v.1.15,2013-03-28 10:23:00,
2013-03-28 06:29:00,29.7,27.4,30.02,West,271,0.0,0.0,91,0.00,,,0.00,Wunderground v.1.15,2013-03-28 10:29:00,
2013-03-28 06:38:00,29.7,27.4,30.02,West,271,0.0,0.0,91,0.00,,,0.00,Wunderground v.1.15,2013-03-28 10:38:00,
2013-03-28 06:44:00,29.8,27.5,30.02,West,271,0.0,0.0,91,0.00,,,0.00,Wunderground v.1.15,2013-03-28 10:44:00,
2013-03-28 06:53:00,29.6,27.3,30.03,West,271,0.0,0.0,91,0.00,,,0.00,Wunderground v.1.15,2013-03-28 10:53:00,
2013-03-28 06:59:00,29.4,27.1,30.03,West,271,0.0,0.0,91,0.00,,,0.00,Wunderground v.1.15,2013-03-28 10:59:00,
2013-03-28 07:08:00,29.4,27.4,30.03,West,271,0.0,0.0,92,0.00,,,0.00,Wunderground v.1.15,2013-03-28 11:08:00,
2013-03-28 07:14:00,29.7,27.9,30.03,West,271,0.0,0.0,93,0.00,,,0.00,Wunderground v.1.15,2013-03-28 11:14:00,
2013-03-28 07:23:00,30.1,28.3,30.03,West,271,0.0,0.0,93,0.00,,,0.00,Wunderground v.1.15,2013-03-28 11:23:00,
2013-03-28 07:29:00,30.3,28.5,30.04,West,271,0.0,0.0,93,0.00,,,0.00,Wunderground v.1.15,2013-03-28 11:29:00,
2013-03-28 07:38:00,30.8,29.0,30.04,West,271,0.0,0.0,93,0.00,,,0.00,Wunderground v.1.15,2013-03-28 11:38:00,
2013-03-28 07:44:00,31.2,29.4,30.04,West,271,0.0,0.0,93,0.00,,,0.00,Wunderground v.1.15,2013-03-28 11:44:00,
2013-03-28 07:53:00,31.8,29.7,30.04,West,271,0.0,0.0,92,0.00,,,0.00,Wunderground v.1.15,2013-03-28 11:53:00,
2013-03-28 07:59:00,32.1,30.0,30.04,West,271,0.0,0.0,92,0.00,,,0.00,Wunderground v.1.15,2013-03-28 11:59:00,
2013-03-28 08:08:00,33.2,31.4,30.04,West,271,0.0,0.0,93,0.00,,,0.00,Wunderground v.1.15,2013-03-28 12:08:00,
2013-03-28 08:14:00,34.0,31.9,30.04,West,271,0.0,0.0,92,0.00,,,0.00,Wunderground v.1.15,2013-03-28 12:14:00,
2013-03-28 08:23:00,35.7,32.8,30.04,West,271,0.0,0.0,89,0.00,,,0.00,Wunderground v.1.15,2013-03-28 12:23:00,
2013-03-28 08:29:00,36.8,33.3,30.05,West,271,0.0,0.0,87,0.00,,,0.00,Wunderground v.1.15,2013-03-28 12:29:00,
2013-03-28 08:38:00,37.6,32.6,30.04,West,271,0.0,0.0,82,0.00,,,0.00,Wunderground v.1.15,2013-03-28 12:38:00,
2013-03-28 08:44:00,38.0,32.1,30.04,West,271,0.0,0.0,79,0.00,,,0.00,Wunderground v.1.15,2013-03-28 12:44:00,
2013-03-28 08:53:00,38.9,32.3,30.04,West,271,0.0,1.0,77,0.00,,,0.00,Wunderground v.1.15,2013-03-28 12:53:00,
2013-03-28 08:59:00,39.7,32.4,30.04,West,271,0.0,0.0,75,0.00,,,0.00,Wunderground v.1.15,2013-03-28 12:59:00,
2013-03-28 09:08:00,41.2,32.5,30.04,NNE,13,1.0,1.0,71,0.00,,,0.00,Wunderground v.1.15,2013-03-28 13:08:00,
2013-03-28 09:14:00,42.0,32.9,30.04,ENE,63,1.0,1.0,70,0.00,,,0.00,Wunderground v.1.15,2013-03-28 13:14:00,
2013-03-28 09:23:00,43.0,32.8,30.04,WSW,242,1.0,2.0,67,0.00,,,0.00,Wunderground v.1.15,2013-03-28 13:23:00,
2013-03-28 09:28:00,43.9,32.9,30.04,West,271,1.0,1.0,65,0.00,,,0.00,Wunderground v.1.15,2013-03-28 13:28:00,
2013-03-28 09:38:00,43.9,32.1,30.04,North,5,1.0,2.0,63,0.00,,,0.00,Wunderground v.1.15,2013-03-28 13:38:00,
2013-03-28 09:43:00,43.1,31.0,30.04,North,355,2.0,3.0,62,0.00,,,0.00,Wunderground v.1.15,2013-03-28 13:43:00,
2013-03-28 09:53:00,42.6,31.7,30.04,ENE,60,2.0,5.0,65,0.00,,,0.00,Wunderground v.1.15,2013-03-28 13:53:00,
2013-03-28 09:58:00,42.5,31.2,30.04,ENE,69,2.0,5.0,64,0.00,,,0.00,Wunderground v.1.15,2013-03-28 13:58:00,
2013-03-28 10:08:00,42.4,31.1,30.05,NNW,344,5.0,5.0,64,0.00,,,0.00,Wunderground v.1.15,2013-03-28 14:08:00,
2013-03-28 10:13:00,43.0,31.6,30.05,NNW,335,4.0,5.0,64,0.00,,,0.00,Wunderground v.1.15,2013-03-28 14:13:00,
2013-03-28 10:23:00,43.6,31.4,30.05,NNW,333,4.0,4.0,62,0.00,,,0.00,Wunderground v.1.15,2013-03-28 14:23:00,
2013-03-28 10:28:00,43.7,31.1,30.05,North,355,3.0,3.0,61,0.00,,,0.00,Wunderground v.1.15,2013-03-28 14:28:00,
2013-03-28 10:38:00,44.4,31.0,30.05,North,11,3.0,5.0,59,0.00,,,0.00,Wunderground v.1.15,2013-03-28 14:38:00,
2013-03-28 10:43:00,44.5,31.5,30.05,NNE,22,4.0,5.0,60,0.00,,,0.00,Wunderground v.1.15,2013-03-28 14:43:00,
2013-03-28 10:53:00,44.6,31.6,30.05,NNW,341,4.0,5.0,60,0.00,,,0.00,Wunderground v.1.15,2013-03-28 14:53:00,
2013-03-28 10:58:00,44.6,31.1,30.05,North,350,3.0,5.0,59,0.00,,,0.00,Wunderground v.1.15,2013-03-28 14:58:00,
2013-03-28 11:08:00,44.7,30.8,30.05,WNW,289,3.0,3.0,58,0.00,,,0.00,Wunderground v.1.15,2013-03-28 15:08:00,
2013-03-28 11:13:00,45.0,31.1,30.05,WNW,297,2.0,4.0,58,0.00,,,0.00,Wunderground v.1.15,2013-03-28 15:13:00,
2013-03-28 11:23:00,45.7,31.8,30.05,North,349,2.0,4.0,58,0.00,,,0.00,Wunderground v.1.15,2013-03-28 15:23:00,
2013-03-28 11:28:00,45.7,30.4,30.05,West,278,3.0,3.0,55,0.00,,,0.00,Wunderground v.1.15,2013-03-28 15:28:00,
2013-03-28 11:38:00,45.2,30.4,30.05,NE,39,4.0,4.0,56,0.00,,,0.00,Wunderground v.1.15,2013-03-28 15:38:00,
2013-03-28 11:43:00,45.5,30.3,30.05,NNW,336,4.0,4.0,55,0.00,,,0.00,Wunderground v.1.15,2013-03-28 15:43:00,
2013-03-28 11:53:00,45.7,30.4,30.05,NE,34,3.0,7.0,55,0.00,,,0.00,Wunderground v.1.15,2013-03-28 15:53:00,
2013-03-28 11:58:00,46.1,30.4,30.05,NNE,21,4.0,6.0,54,0.00,,,0.00,Wunderground v.1.15,2013-03-28 15:58:00,
2013-03-28 12:08:00,47.5,30.7,30.04,North,355,2.0,2.0,52,0.00,,,0.00,Wunderground v.1.15,2013-03-28 16:08:00,
2013-03-28 12:13:00,48.1,29.8,30.04,SSW,194,2.0,2.0,49,0.00,,,0.00,Wunderground v.1.15,2013-03-28 16:13:00,
2013-03-28 12:23:00,48.8,30.0,30.04,North,360,2.0,3.0,48,0.00,,,0.00,Wunderground v.1.15,2013-03-28 16:23:00,
2013-03-28 12:28:00,48.1,29.8,30.04,NE,34,3.0,7.0,49,0.00,,,0.00,Wunderground v.1.15,2013-03-28 16:28:00,
2013-03-28 12:37:00,46.6,29.4,30.04,NNE,14,5.0,5.0,51,0.00,,,0.00,Wunderground v.1.15,2013-03-28 16:37:00,
2013-03-28 12:43:00,46.5,29.8,30.04,North,355,3.0,5.0,52,0.00,,,0.00,Wunderground v.1.15,2013-03-28 16:43:00,
2013-03-28 12:52:00,46.1,29.4,30.04,North,350,3.0,7.0,52,0.00,,,0.00,Wunderground v.1.15,2013-03-28 16:52:00,
2013-03-28 12:58:00,46.1,29.0,30.05,West,277,3.0,7.0,51,0.00,,,0.00,Wunderground v.1.15,2013-03-28 16:58:00,
2013-03-28 13:04:00,46.0,28.9,30.04,WNW,302,4.0,7.0,51,0.00,,,0.00,Wunderground v.1.15,2013-03-28 17:04:00,
2013-03-28 13:14:00,46.0,28.9,30.04,NNE,23,3.0,5.0,51,0.00,,,0.00,Wunderground v.1.15,2013-03-28 17:14:00,
2013-03-28 13:23:00,46.3,29.6,30.04,NNW,340,4.0,4.0,52,0.00,,,0.00,Wunderground v.1.15,2013-03-28 17:23:00,
2013-03-28 13:29:00,46.2,29.5,30.04,NNW,346,3.0,9.0,52,0.00,,,0.00,Wunderground v.1.15,2013-03-28 17:29:00,
2013-03-28 13:38:00,46.5,30.3,30.04,West,279,4.0,9.0,53,0.00,,,0.00,Wunderground v.1.15,2013-03-28 17:38:00,
2013-03-28 13:44:00,46.7,29.5,30.04,NE,46,3.0,3.0,51,0.00,,,0.00,Wunderground v.1.15,2013-03-28 17:44:00,
2013-03-28 13:53:00,46.8,30.1,30.04,North,5,3.0,3.0,52,0.00,,,0.00,Wunderground v.1.15,2013-03-28 17:53:00,
2013-03-28 13:59:00,46.6,29.4,30.05,North,355,2.0,3.0,51,0.00,,,0.00,Wunderground v.1.15,2013-03-28 17:59:00,
2013-03-28 14:09:00,46.0,29.8,30.05,East,81,3.0,3.0,53,0.00,,,0.00,Wunderground v.1.15,2013-03-28 18:09:00,
2013-03-28 14:14:00,46.4,29.7,30.05,NNE,12,2.0,4.0,52,0.00,,,0.00,Wunderground v.1.15,2013-03-28 18:14:00,
2013-03-28 14:23:00,46.7,29.0,30.05,NNE,17,2.0,8.0,50,0.00,,,0.00,Wunderground v.1.15,2013-03-28 18:23:00,
2013-03-28 14:29:00,46.7,29.0,30.05,NE,52,3.0,3.0,50,0.00,,,0.00,Wunderground v.1.15,2013-03-28 18:29:00,
2013-03-28 14:38:00,47.0,28.8,30.04,NE,44,3.0,5.0,49,0.00,,,0.00,Wunderground v.1.15,2013-03-28 18:38:00,
2013-03-28 14:44:00,46.7,28.5,30.04,North,351,4.0,5.0,49,0.00,,,0.00,Wunderground v.1.15,2013-03-28 18:44:00,
2013-03-28 14:53:00,46.8,29.1,30.05,NNW,329,3.0,5.0,50,0.00,,,0.00,Wunderground v.1.15,2013-03-28 18:53:00,
2013-03-28 14:59:00,46.7,29.0,30.05,WNW,284,3.0,3.0,50,0.00,,,0.00,Wunderground v.1.15,2013-03-28 18:59:00,
2013-03-28 15:08:00,46.5,28.8,30.04,North,5,4.0,4.0,50,0.00,,,0.00,Wunderground v.1.15,2013-03-28 19:08:00,
2013-03-28 15:18:00,47.1,29.4,30.04,WNW,290,2.0,2.0,50,0.00,,,0.00,Wunderground v.1.15,2013-03-28 19:18:00,
2013-03-28 15:33:00,47.1,29.4,30.04,North,5,3.0,3.0,50,0.00,,,0.00,Wunderground v.1.15,2013-03-28 19:33:00,
2013-03-28 15:38:00,47.3,29.6,30.04,North,355,3.0,6.0,50,0.00,,,0.00,Wunderground v.1.15,2013-03-28 19:38:00,
2013-03-28 15:44:00,47.3,28.6,30.04,WNW,288,3.0,3.0,48,0.00,,,0.00,Wunderground v.1.15,2013-03-28 19:44:00,
2013-03-28 15:53:00,47.6,29.4,30.04,West,278,1.0,3.0,49,0.00,,,0.00,Wunderground v.1.15,2013-03-28 19:53:00,
2013-03-28 15:59:00,47.9,29.6,30.04,West,276,1.0,1.0,49,0.00,,,0.00,Wunderground v.1.15,2013-03-28 19:59:00,
2013-03-28 16:08:00,48.3,29.0,30.04,WNW,300,2.0,2.0,47,0.00,,,0.00,Wunderground v.1.15,2013-03-28 20:08:00,
2013-03-28 16:14:00,47.8,29.0,30.04,North,9,3.0,3.0,48,0.00,,,0.00,Wunderground v.1.15,2013-03-28 20:14:00,
2013-03-28 16:23:00,47.7,29.5,30.04,West,270,1.0,3.0,49,0.00,,,0.00,Wunderground v.1.15,2013-03-28 20:23:00,
2013-03-28 16:29:00,48.1,29.8,30.04,West,268,2.0,4.0,49,0.00,,,0.00,Wunderground v.1.15,2013-03-28 20:29:00,
2013-03-28 16:38:00,48.2,29.9,30.05,NNW,346,2.0,3.0,49,0.00,,,0.00,Wunderground v.1.15,2013-03-28 20:38:00,
2013-03-28 16:44:00,48.1,29.3,30.05,North,360,2.0,3.0,48,0.00,,,0.00,Wunderground v.1.15,2013-03-28 20:44:00,
2013-03-28 16:53:00,47.9,29.1,30.05,NNW,337,3.0,6.0,48,0.00,,,0.00,Wunderground v.1.15,2013-03-28 20:53:00,
2013-03-28 16:59:00,47.9,29.1,30.05,NW,317,2.0,2.0,48,0.00,,,0.00,Wunderground v.1.15,2013-03-28 20:59:00,
2013-03-28 17:08:00,47.8,29.0,30.05,North,360,3.0,4.0,48,0.00,,,0.00,Wunderground v.1.15,2013-03-28 21:08:00,
2013-03-28 17:14:00,47.8,29.5,30.05,NNE,14,2.0,4.0,49,0.00,,,0.00,Wunderground v.1.15,2013-03-28 21:14:00,
2013-03-28 17:23:00,48.0,29.7,30.06,WNW,283,1.0,1.0,49,0.00,,,0.00,Wunderground v.1.15,2013-03-28 21:23:00,
2013-03-28 17:29:00,47.9,29.6,30.06,North,360,1.0,1.0,49,0.00,,,0.00,Wunderground v.1.15,2013-03-28 21:29:00,
2013-03-28 17:38:00,47.7,29.5,30.06,North,5,1.0,2.0,49,0.00,,,0.00,Wunderground v.1.15,2013-03-28 21:38:00,
2013-03-28 17:44:00,47.4,29.2,30.06,North,355,3.0,6.0,49,0.00,,,0.00,Wunderground v.1.15,2013-03-28 21:44:00,
2013-03-28 17:53:00,47.1,29.4,30.07,NNW,333,3.0,4.0,50,0.00,,,0.00,Wunderground v.1.15,2013-03-28 21:53:00,
2013-03-28 17:59:00,47.0,29.8,30.07,NW,313,2.0,2.0,51,0.00,,,0.00,Wunderground v.1.15,2013-03-28 21:59:00,
2013-03-28 18:08:00,47.0,29.3,30.07,NNE,13,1.0,1.0,50,0.00,,,0.00,Wunderground v.1.15,2013-03-28 22:08:00,
2013-03-28 18:14:00,47.1,29.9,30.08,WNW,284,1.0,2.0,51,0.00,,,0.00,Wunderground v.1.15,2013-03-28 22:14:00,
2013-03-28 18:23:00,47.0,29.3,30.08,West,278,2.0,2.0,50,0.00,,,0.00,Wunderground v.1.15,2013-03-28 22:23:00,
2013-03-28 18:29:00,47.0,29.8,30.08,NW,323,1.0,3.0,51,0.00,,,0.00,Wunderground v.1.15,2013-03-28 22:29:00,
2013-03-28 18:38:00,46.9,29.7,30.09,WNW,288,2.0,4.0,51,0.00,,,0.00,Wunderground v.1.15,2013-03-28 22:38:00,
2013-03-28 18:43:00,46.8,29.6,30.09,NNE,26,2.0,4.0,51,0.00,,,0.00,Wunderground v.1.15,2013-03-28 22:43:00,
2013-03-28 18:53:00,46.6,29.9,30.09,North,350,2.0,3.0,52,0.00,,,0.00,Wunderground v.1.15,2013-03-28 22:53:00,
2013-03-28 18:58:00,46.5,29.8,30.09,North,350,2.0,3.0,52,0.00,,,0.00,Wunderground v.1.15,2013-03-28 22:58:00,
2013-03-28 19:08:00,46.4,29.7,30.10,NNW,332,2.0,4.0,52,0.00,,,0.00,Wunderground v.1.15,2013-03-28 23:08:00,
2013-03-28 19:14:00,46.3,29.6,30.10,NNE,12,2.0,5.0,52,0.00,,,0.00,Wunderground v.1.15,2013-03-28 23:14:00,
2013-03-28 19:23:00,46.2,30.5,30.10,North,355,1.0,2.0,54,0.00,,,0.00,Wunderground v.1.15,2013-03-28 23:23:00,
2013-03-28 19:28:00,46.1,30.4,30.10,North,9,1.0,3.0,54,0.00,,,0.00,Wunderground v.1.15,2013-03-28 23:28:00,
2013-03-28 19:38:00,45.9,30.2,30.11,NNE,22,1.0,1.0,54,0.00,,,0.00,Wunderground v.1.15,2013-03-28 23:38:00,
2013-03-28 19:43:00,45.9,30.2,30.11,NE,55,1.0,1.0,54,0.00,,,0.00,Wunderground v.1.15,2013-03-28 23:43:00,
2013-03-28 19:53:00,45.8,30.1,30.11,NNE,18,1.0,1.0,54,0.00,,,0.00,Wunderground v.1.15,2013-03-28 23:53:00,
2013-03-28 19:58:00,45.8,30.1,30.11,NW,310,0.0,0.0,54,0.00,,,0.00,Wunderground v.1.15,2013-03-28 23:58:00,
2013-03-28 20:08:00,45.6,30.3,30.11,North,5,0.0,0.0,55,0.00,,,0.00,Wunderground v.1.15,2013-03-29 00:08:00,
2013-03-28 20:14:00,45.6,30.3,30.11,NW,315,0.0,0.0,55,0.00,,,0.00,Wunderground v.1.15,2013-03-29 00:14:00,
2013-03-28 20:23:00,45.5,30.3,30.12,NW,311,0.0,0.0,55,0.00,,,0.00,Wunderground v.1.15,2013-03-29 00:23:00,
2013-03-28 20:28:00,45.4,30.6,30.12,NW,311,0.0,0.0,56,0.00,,,0.00,Wunderground v.1.15,2013-03-29 00:28:00,
2013-03-28 20:38:00,45.1,30.3,30.12,WNW,291,0.0,1.0,56,0.00,,,0.00,Wunderground v.1.15,2013-03-29 00:38:00,
2013-03-28 20:43:00,45.0,30.2,30.12,WNW,291,0.0,1.0,56,0.00,,,0.00,Wunderground v.1.15,2013-03-29 00:43:00,
2013-03-28 20:53:00,44.9,30.6,30.12,NW,319,0.0,1.0,57,0.00,,,0.00,Wunderground v.1.15,2013-03-29 00:53:00,
2013-03-28 21:03:00,44.9,30.6,30.13,NW,306,1.0,1.0,57,0.00,,,0.00,Wunderground v.1.15,2013-03-29 01:03:00,
2013-03-28 21:13:00,44.7,30.4,30.13,NNW,331,0.0,0.0,57,0.00,,,0.00,Wunderground v.1.15,2013-03-29 01:13:00,
2013-03-28 21:23:00,44.7,30.8,30.13,WNW,294,0.0,0.0,58,0.00,,,0.00,Wunderground v.1.15,2013-03-29 01:23:00,
2013-03-28 21:28:00,44.6,30.3,30.14,WNW,294,0.0,0.0,57,0.00,,,0.00,Wunderground v.1.15,2013-03-29 01:28:00,
2013-03-28 21:38:00,44.5,30.2,30.13,WNW,286,0.0,2.0,57,0.00,,,0.00,Wunderground v.1.15,2013-03-29 01:38:00,
2013-03-28 21:43:00,44.6,29.9,30.13,WNW,292,1.0,2.0,56,0.00,,,0.00,Wunderground v.1.15,2013-03-29 01:43:00,
2013-03-28 21:52:00,44.6,30.3,30.14,NW,325,1.0,2.0,57,0.00,,,0.00,Wunderground v.1.15,2013-03-29 01:52:00,
2013-03-28 21:58:00,44.7,30.4,30.14,WNW,292,1.0,1.0,57,0.00,,,0.00,Wunderground v.1.15,2013-03-29 01:58:00,
2013-03-28 22:08:00,44.7,30.4,30.14,West,281,1.0,1.0,57,0.00,,,0.00,Wunderground v.1.15,2013-03-29 02:08:00,
2013-03-28 22:13:00,44.6,30.3,30.14,North,350,1.0,1.0,57,0.00,,,0.00,Wunderground v.1.15,2013-03-29 02:13:00,
2013-03-28 22:23:00,44.5,30.6,30.14,WNW,292,0.0,1.0,58,0.00,,,0.00,Wunderground v.1.15,2013-03-29 02:23:00,
2013-03-28 22:28:00,44.5,30.6,30.14,NW,306,1.0,1.0,58,0.00,,,0.00,Wunderground v.1.15,2013-03-29 02:28:00,
2013-03-28 22:38:00,44.5,30.6,30.14,WNW,291,1.0,1.0,58,0.00,,,0.00,Wunderground v.1.15,2013-03-29 02:38:00,
2013-03-28 22:43:00,44.4,30.5,30.14,West,277,1.0,1.0,58,0.00,,,0.00,Wunderground v.1.15,2013-03-29 02:43:00,
2013-03-28 22:52:00,44.4,30.5,30.14,West,277,1.0,3.0,58,0.00,,,0.00,Wunderground v.1.15,2013-03-29 02:52:00,
2013-03-28 22:58:00,44.3,30.4,30.14,NE,47,2.0,2.0,58,0.00,,,0.00,Wunderground v.1.15,2013-03-29 02:58:00,
2013-03-28 23:07:00,44.2,30.8,30.14,SSE,163,1.0,1.0,59,0.00,,,0.00,Wunderground v.1.15,2013-03-29 03:07:00,
2013-03-28 23:13:00,44.2,30.3,30.14,WNW,292,1.0,1.0,58,0.00,,,0.00,Wunderground v.1.15,2013-03-29 03:13:00,
2013-03-28 23:23:00,44.1,30.7,30.15,SE,136,0.0,1.0,59,0.00,,,0.00,Wunderground v.1.15,2013-03-29 03:23:00,
2013-03-28 23:28:00,44.0,30.6,30.15,WSW,251,1.0,1.0,59,0.00,,,0.00,Wunderground v.1.15,2013-03-29 03:28:00,
2013-03-28 23:38:00,43.9,30.5,30.15,West,281,1.0,1.0,59,0.00,,,0.00,Wunderground v.1.15,2013-03-29 03:38:00,
2013-03-28 23:43:00,43.8,30.8,30.16,ENE,67,1.0,1.0,60,0.00,,,0.00,Wunderground v.1.15,2013-03-29 03:43:00,
2013-03-28 23:53:00,43.6,30.6,30.15,ENE,67,0.0,1.0,60,0.00,,,0.00,Wunderground v.1.15,2013-03-29 03:53:00,
2013-03-28 23:58:00,43.6,31.0,30.16,ENE,67,0.0,0.0,61,0.00,,,0.00,Wunderground v.1.15,2013-03-29 03:58:00,